createdAt,value
2024-05-09T00:00:38.737Z,98991.6
2024-05-09T00:01:20.024Z,98990.6
2024-05-09T00:02:22.067Z,98989.6
2024-05-09T00:03:20.534Z,98988.8
2024-05-09T00:04:22.663Z,98988.8
2024-05-09T00:05:22.114Z,98987.8
2024-05-09T00:06:18.232Z,98987
2024-05-09T00:07:20.110Z,98986.6
2024-05-09T00:08:19.430Z,98984.8
2024-05-09T00:09:22.555Z,98983.2
2024-05-09T00:10:37.334Z,98981.4
2024-05-09T00:11:18.048Z,98979.4
2024-05-09T00:12:17.196Z,98977.6
2024-05-09T00:13:17.388Z,98977
2024-05-09T00:14:17.304Z,98975.6
2024-05-09T00:15:18.090Z,98975
2024-05-09T00:16:18.184Z,98975
2024-05-09T00:17:19.053Z,98975.2
2024-05-09T00:18:17.290Z,98974
2024-05-09T00:19:17.253Z,98973.6
2024-05-09T00:20:36.249Z,98972.6
2024-05-09T00:21:18.071Z,98971.6
2024-05-09T00:22:16.958Z,98969.6
2024-05-09T00:23:17.838Z,98968.8
2024-05-09T00:24:17.319Z,98968.6
2024-05-09T00:25:17.946Z,98968.8
2024-05-09T00:26:17.456Z,98967.6
2024-05-09T00:27:18.256Z,98968.2
2024-05-09T00:28:17.526Z,98968.4
2024-05-09T00:29:18.023Z,98967.6
2024-05-09T00:30:35.359Z,98966.2
2024-05-09T00:31:17.450Z,98966.6
2024-05-09T00:32:18.339Z,98965
2024-05-09T00:33:18.681Z,98965
2024-05-09T00:34:18.401Z,98964.4
2024-05-09T00:35:18.074Z,98964.4
2024-05-09T00:36:17.375Z,98964
2024-05-09T00:37:17.586Z,98964.2
2024-05-09T00:38:18.028Z,98963
2024-05-09T00:39:17.053Z,98962.4
2024-05-09T00:40:38.683Z,98963
2024-05-09T00:41:20.202Z,98963.2
2024-05-09T00:42:18.047Z,98963.4
2024-05-09T00:43:18.008Z,98963.6
2024-05-09T00:44:18.738Z,98964.2
2024-05-09T00:45:18.635Z,98962
2024-05-09T00:46:16.662Z,98962
2024-05-09T00:47:17.318Z,98962
2024-05-09T00:48:21.950Z,98961.4
2024-05-09T00:49:17.411Z,98962
2024-05-09T00:50:36.064Z,98963.4
2024-05-09T00:51:16.845Z,98963.2
2024-05-09T00:52:16.648Z,98964.2
2024-05-09T00:53:19.070Z,98965
2024-05-09T00:54:17.895Z,98964.2
2024-05-09T00:55:17.282Z,98965
2024-05-09T00:56:17.405Z,98965
2024-05-09T00:57:18.360Z,98964.8
2024-05-09T00:58:18.255Z,98964.8
2024-05-09T00:59:17.656Z,98964.8
2024-05-09T01:00:38.638Z,98964
2024-05-09T01:01:17.324Z,98963.2
2024-05-09T01:02:19.077Z,98962
2024-05-09T01:03:18.863Z,98961.2
2024-05-09T01:04:17.210Z,98961
2024-05-09T01:05:17.868Z,98960.4
2024-05-09T01:06:18.854Z,98960.2
2024-05-09T01:07:16.832Z,98960
2024-05-09T01:08:17.159Z,98960.6
2024-05-09T01:09:17.155Z,98960.6
2024-05-09T01:10:34.722Z,98960.6
2024-05-09T01:11:17.183Z,98961.8
2024-05-09T01:12:18.754Z,98961.6
2024-05-09T01:13:17.502Z,98961.4
2024-05-09T01:14:18.684Z,98962.2
2024-05-09T01:15:17.039Z,98962.4
2024-05-09T01:16:17.450Z,98962.4
2024-05-09T01:17:19.100Z,98963.2
2024-05-09T01:18:17.944Z,98963.2
2024-05-09T01:19:17.885Z,98963
2024-05-09T01:20:40.159Z,98963.6
2024-05-09T01:21:17.643Z,98963.6
2024-05-09T01:22:18.376Z,98962.6
2024-05-09T01:23:19.107Z,98962.4
2024-05-09T01:24:18.843Z,98961.6
2024-05-09T01:25:17.555Z,98960.4
2024-05-09T01:26:16.764Z,98959.2
2024-05-09T01:27:16.762Z,98958.8
2024-05-09T01:28:17.036Z,98957.6
2024-05-09T01:29:17.126Z,98956.8
2024-05-09T01:30:34.320Z,98957.2
2024-05-09T01:31:17.663Z,98956.8
2024-05-09T01:32:17.884Z,98957
2024-05-09T01:33:17.196Z,98957.8
2024-05-09T01:34:18.195Z,98958
2024-05-09T01:35:17.527Z,98957.2
2024-05-09T01:36:17.429Z,98956.6
2024-05-09T01:37:17.567Z,98955.6
2024-05-09T01:38:18.165Z,98954.6
2024-05-09T01:39:16.722Z,98953.6
2024-05-09T01:40:35.537Z,98952.6
2024-05-09T01:41:17.788Z,98951.8
2024-05-09T01:42:16.972Z,98951.2
2024-05-09T01:43:17.086Z,98950.8
2024-05-09T01:44:17.148Z,98950.4
2024-05-09T01:45:17.760Z,98949.6
2024-05-09T01:46:17.859Z,98949.2
2024-05-09T01:47:17.517Z,98949.2
2024-05-09T01:48:17.507Z,98948.8
2024-05-09T01:49:17.594Z,98948.8
2024-05-09T01:50:37.715Z,98950
2024-05-09T01:51:18.002Z,98951.2
2024-05-09T01:52:16.857Z,98951.4
2024-05-09T01:53:17.189Z,98952.2
2024-05-09T01:54:18.440Z,98952.6
2024-05-09T01:55:17.901Z,98953.6
2024-05-09T01:56:17.329Z,98953.4
2024-05-09T01:57:17.186Z,98954.8
2024-05-09T01:58:17.306Z,98955.2
2024-05-09T01:59:18.708Z,98956.2
2024-05-09T02:00:39.841Z,98955.6
2024-05-09T02:01:17.637Z,98956.6
2024-05-09T02:02:19.436Z,98957.2
2024-05-09T02:03:18.764Z,98957.8
2024-05-09T02:04:17.401Z,98958.8
2024-05-09T02:05:18.045Z,98960.2
2024-05-09T02:06:16.666Z,98960.2
2024-05-09T02:07:17.830Z,98959.8
2024-05-09T02:08:18.350Z,98960.2
2024-05-09T02:09:17.075Z,98959.6
2024-05-09T02:10:32.939Z,98959
2024-05-09T02:11:18.788Z,98960
2024-05-09T02:12:18.002Z,98960.4
2024-05-09T02:13:17.675Z,98961
2024-05-09T02:14:15.717Z,98961.8
2024-05-09T02:15:17.686Z,98963.2
2024-05-09T02:16:15.882Z,98963
2024-05-09T02:17:18.526Z,98964.4
2024-05-09T02:18:19.450Z,98965.8
2024-05-09T02:19:17.518Z,98966.4
2024-05-09T02:20:35.985Z,98966.4
2024-05-09T02:21:17.118Z,98967.2
2024-05-09T02:22:16.990Z,98966.4
2024-05-09T02:23:18.151Z,98965.6
2024-05-09T02:24:17.142Z,98965.8
2024-05-09T02:25:17.918Z,98966
2024-05-09T02:26:18.111Z,98966.4
2024-05-09T02:27:17.052Z,98967.2
2024-05-09T02:28:17.151Z,98968
2024-05-09T02:29:17.262Z,98968.4
2024-05-09T02:30:40.200Z,98968.2
2024-05-09T02:31:16.920Z,98968.2
2024-05-09T02:32:18.357Z,98967.8
2024-05-09T02:33:17.871Z,98967.4
2024-05-09T02:34:18.794Z,98967.2
2024-05-09T02:35:17.258Z,98968
2024-05-09T02:36:17.350Z,98968.2
2024-05-09T02:37:17.401Z,98969.2
2024-05-09T02:38:17.789Z,98969.4
2024-05-09T02:39:18.579Z,98969.8
2024-05-09T02:40:36.402Z,98970
2024-05-09T02:41:17.385Z,98970
2024-05-09T02:42:18.324Z,98970.2
2024-05-09T02:43:17.490Z,98970.6
2024-05-09T02:44:18.731Z,98971
2024-05-09T02:45:17.091Z,98971.4
2024-05-09T02:46:17.394Z,98972.2
2024-05-09T02:47:17.841Z,98972.8
2024-05-09T02:48:17.103Z,98974
2024-05-09T02:49:17.027Z,98974.4
2024-05-09T02:50:38.940Z,98974.4
2024-05-09T02:51:17.203Z,98974
2024-05-09T02:52:17.123Z,98972.4
2024-05-09T02:53:18.201Z,98970.4
2024-05-09T02:54:17.339Z,98969.8
2024-05-09T02:55:17.827Z,98969
2024-05-09T02:56:17.071Z,98968
2024-05-09T02:57:16.980Z,98968
2024-05-09T02:58:18.119Z,98967.2
2024-05-09T02:59:17.269Z,98965.4
2024-05-09T03:00:35.234Z,98963.6
2024-05-09T03:01:16.756Z,98963
2024-05-09T03:02:18.969Z,98962
2024-05-09T03:03:17.163Z,98961.6
2024-05-09T03:04:17.129Z,98961
2024-05-09T03:05:17.702Z,98961
2024-05-09T03:06:18.594Z,98960.4
2024-05-09T03:07:20.312Z,98960.2
2024-05-09T03:08:16.660Z,98959.4
2024-05-09T03:09:16.907Z,98960.4
2024-05-09T03:10:28.957Z,98961
2024-05-09T03:11:16.941Z,98961.4
2024-05-09T03:12:18.007Z,98962
2024-05-09T03:13:17.094Z,98963.4
2024-05-09T03:14:18.292Z,98964
2024-05-09T03:15:17.837Z,98964.8
2024-05-09T03:16:16.851Z,98966.4
2024-05-09T03:17:17.250Z,98967.6
2024-05-09T03:18:18.330Z,98969.2
2024-05-09T03:19:18.726Z,98970.4
2024-05-09T03:20:33.521Z,98970.8
2024-05-09T03:21:17.133Z,98970.8
2024-05-09T03:22:18.279Z,98971.8
2024-05-09T03:23:18.492Z,98971.2
2024-05-09T03:24:18.473Z,98971.2
2024-05-09T03:25:18.163Z,98972.2
2024-05-09T03:26:17.504Z,98973
2024-05-09T03:27:17.588Z,98972.2
2024-05-09T03:28:18.552Z,98973.2
2024-05-09T03:29:17.066Z,98973.6
2024-05-09T03:30:41.545Z,98973
2024-05-09T03:31:17.496Z,98972.8
2024-05-09T03:32:17.664Z,98973.4
2024-05-09T03:33:21.124Z,98972.8
2024-05-09T03:34:17.748Z,98972.2
2024-05-09T03:35:17.338Z,98971.6
2024-05-09T03:36:17.357Z,98971.2
2024-05-09T03:37:17.444Z,98970.4
2024-05-09T03:38:19.023Z,98970.2
2024-05-09T03:39:16.845Z,98970
2024-05-09T03:40:30.524Z,98971
2024-05-09T03:41:16.898Z,98971.8
2024-05-09T03:42:17.019Z,98972.8
2024-05-09T03:43:17.257Z,98973.8
2024-05-09T03:44:17.633Z,98975
2024-05-09T03:45:17.247Z,98975.4
2024-05-09T03:46:17.265Z,98975.6
2024-05-09T03:47:18.416Z,98975.8
2024-05-09T03:48:17.712Z,98975
2024-05-09T03:49:17.938Z,98974
2024-05-09T03:50:35.232Z,98973.4
2024-05-09T03:51:17.468Z,98972.4
2024-05-09T03:52:17.595Z,98971
2024-05-09T03:53:17.745Z,98970.4
2024-05-09T03:54:17.053Z,98969
2024-05-09T03:55:18.464Z,98967.6
2024-05-09T03:56:17.800Z,98966.2
2024-05-09T03:57:17.095Z,98965
2024-05-09T03:58:17.267Z,98964.2
2024-05-09T03:59:17.352Z,98964.2
2024-05-09T04:00:37.510Z,98964.4
2024-05-09T04:01:16.959Z,98965.2
2024-05-09T04:02:18.686Z,98966.2
2024-05-09T04:03:17.591Z,98966.6
2024-05-09T04:04:17.198Z,98967.4
2024-05-09T04:05:18.632Z,98968
2024-05-09T04:06:16.694Z,98968.2
2024-05-09T04:07:20.237Z,98968.2
2024-05-09T04:08:18.350Z,98968.6
2024-05-09T04:09:17.295Z,98969
2024-05-09T04:10:34.652Z,98969.6
2024-05-09T04:11:17.456Z,98970.6
2024-05-09T04:12:17.746Z,98972
2024-05-09T04:13:54.599Z,98973.8
2024-05-09T04:14:17.867Z,98975.6
2024-05-09T04:15:18.306Z,98976.4
2024-05-09T04:16:17.258Z,98977.6
2024-05-09T04:17:17.292Z,98978.2
2024-05-09T04:18:18.719Z,98978.4
2024-05-09T04:19:17.886Z,98977.2
2024-05-09T04:20:40.072Z,98976.4
2024-05-09T04:21:17.322Z,98975.4
2024-05-09T04:22:17.170Z,98975.6
2024-05-09T04:23:17.341Z,98976
2024-05-09T04:24:17.400Z,98977.4
2024-05-09T04:25:19.291Z,98978.6
2024-05-09T04:26:18.396Z,98979.6
2024-05-09T04:27:17.409Z,98979.4
2024-05-09T04:28:17.721Z,98979.6
2024-05-09T04:29:17.928Z,98980
2024-05-09T04:30:37.798Z,98982.4
2024-05-09T04:31:16.827Z,98984.6
2024-05-09T04:32:17.116Z,98988
2024-05-09T04:33:17.168Z,98990.6
2024-05-09T04:34:19.229Z,98993
2024-05-09T04:35:22.443Z,98994.2
2024-05-09T04:36:18.114Z,98995.4
2024-05-09T04:37:48.381Z,98995.8
2024-05-09T04:38:17.574Z,98997
2024-05-09T04:39:17.638Z,98998
2024-05-09T04:40:35.164Z,98999.2
2024-05-09T04:41:18.275Z,98999.8
2024-05-09T04:42:18.197Z,99000
2024-05-09T04:43:17.570Z,99000.8
2024-05-09T04:44:18.630Z,99001.6
2024-05-09T04:45:17.799Z,99001
2024-05-09T04:46:17.031Z,99001.8
2024-05-09T04:47:17.133Z,99003.4
2024-05-09T04:48:18.591Z,99004
2024-05-09T04:49:17.337Z,99004.6
2024-05-09T04:50:37.773Z,99006
2024-05-09T04:51:16.010Z,99006.2
2024-05-09T04:52:17.111Z,99005.8
2024-05-09T04:53:18.217Z,99006
2024-05-09T04:54:36.556Z,99006
2024-05-09T04:55:17.777Z,99006.6
2024-05-09T04:56:17.171Z,99007.8
2024-05-09T04:57:18.006Z,99009.2
2024-05-09T04:58:18.073Z,99010.2
2024-05-09T04:59:17.371Z,99011.6
2024-05-09T05:00:35.650Z,99012.6
2024-05-09T05:01:16.846Z,99013.2
2024-05-09T05:02:18.033Z,99013.8
2024-05-09T05:03:18.644Z,99014.8
2024-05-09T05:04:17.659Z,99015.2
2024-05-09T05:05:17.600Z,99015.8
2024-05-09T05:06:18.307Z,99016.4
2024-05-09T05:07:16.684Z,99016.8
2024-05-09T05:08:19.584Z,99017.2
2024-05-09T05:09:18.619Z,99016.6
2024-05-09T05:10:35.650Z,99015.6
2024-05-09T05:11:21.311Z,99014.8
2024-05-09T05:12:53.166Z,99015.4
2024-05-09T05:13:21.446Z,99014.4
2024-05-09T05:14:18.387Z,99015.4
2024-05-09T05:15:17.557Z,99016.8
2024-05-09T05:16:17.516Z,99018.2
2024-05-09T05:17:18.822Z,99019.4
2024-05-09T05:18:17.939Z,99020.2
2024-05-09T05:19:18.491Z,99020.2
2024-05-09T05:20:33.783Z,99020.6
2024-05-09T05:21:17.884Z,99020.6
2024-05-09T05:22:17.711Z,99021.4
2024-05-09T05:23:17.281Z,99023.4
2024-05-09T05:24:16.736Z,99025.2
2024-05-09T05:25:16.951Z,99026.4
2024-05-09T05:26:17.091Z,99028.2
2024-05-09T05:27:17.189Z,99028.4
2024-05-09T05:28:17.418Z,99029
2024-05-09T05:29:21.355Z,99029.8
2024-05-09T05:30:34.295Z,99030.6
2024-05-09T05:31:17.438Z,99030.8
2024-05-09T05:32:17.962Z,99031.6
2024-05-09T05:33:17.293Z,99031
2024-05-09T05:34:16.845Z,99031.2
2024-05-09T05:35:17.320Z,99030.6
2024-05-09T05:36:17.524Z,99029.6
2024-05-09T05:37:17.624Z,99028
2024-05-09T05:38:17.816Z,99028
2024-05-09T05:39:16.740Z,99027.8
2024-05-09T05:40:36.956Z,99028
2024-05-09T05:41:17.134Z,99029
2024-05-09T05:42:17.175Z,99030.6
2024-05-09T05:43:17.367Z,99032
2024-05-09T05:44:55.305Z,99032
2024-05-09T05:45:18.599Z,99034.2
2024-05-09T05:46:17.759Z,99035.6
2024-05-09T05:47:16.973Z,99036
2024-05-09T05:48:19.174Z,99036
2024-05-09T05:49:17.317Z,99037.8
2024-05-09T05:50:36.197Z,99037.6
2024-05-09T05:51:17.596Z,99039.4
2024-05-09T05:52:18.018Z,99041
2024-05-09T05:53:17.501Z,99043.6
2024-05-09T05:54:17.333Z,99045
2024-05-09T05:55:22.588Z,99046.6
2024-05-09T05:56:49.732Z,99046.6
2024-05-09T05:57:38.825Z,99047.2
2024-05-09T05:58:29.817Z,99046.8
2024-05-09T05:59:46.823Z,99047.4
2024-05-09T06:00:49.861Z,99048
2024-05-09T06:01:45.223Z,99049.6
2024-05-09T06:02:17.679Z,99051
2024-05-09T06:03:20.890Z,99052.4
2024-05-09T06:04:16.758Z,99053.4
2024-05-09T06:05:47.967Z,99052.8
2024-05-09T06:06:26.980Z,99051.6
2024-05-09T06:07:21.273Z,99049.8
2024-05-09T06:08:17.469Z,99048
2024-05-09T06:09:17.366Z,99046.2
2024-05-09T06:10:34.981Z,99045.6
2024-05-09T06:11:16.927Z,99044.6
2024-05-09T06:12:17.835Z,99044
2024-05-09T06:13:16.667Z,99044
2024-05-09T06:14:17.128Z,99044.2
2024-05-09T06:15:17.228Z,99046.2
2024-05-09T06:16:17.052Z,99048
2024-05-09T06:17:17.378Z,99049.6
2024-05-09T06:18:17.538Z,99051.6
2024-05-09T06:19:17.375Z,99053.6
2024-05-09T06:20:36.345Z,99053.6
2024-05-09T06:21:18.154Z,99054.4
2024-05-09T06:22:17.477Z,99055.8
2024-05-09T06:23:16.768Z,99056.4
2024-05-09T06:24:17.865Z,99057.4
2024-05-09T06:25:16.919Z,99058.4
2024-05-09T06:26:17.118Z,99060
2024-05-09T06:27:17.025Z,99061.6
2024-05-09T06:28:18.173Z,99063
2024-05-09T06:29:17.359Z,99063.2
2024-05-09T06:30:38.319Z,99064.2
2024-05-09T06:31:16.597Z,99064.8
2024-05-09T06:32:16.940Z,99065
2024-05-09T06:33:17.905Z,99064.4
2024-05-09T06:34:17.178Z,99065.4
2024-05-09T06:35:16.817Z,99065.4
2024-05-09T06:36:17.858Z,99064.6
2024-05-09T06:37:16.912Z,99064.2
2024-05-09T06:38:17.009Z,99064.8
2024-05-09T06:39:16.970Z,99063.6
2024-05-09T06:40:34.424Z,99063.6
2024-05-09T06:41:16.618Z,99063.6
2024-05-09T06:42:16.761Z,99064
2024-05-09T06:43:20.226Z,99064.8
2024-05-09T06:44:18.177Z,99066
2024-05-09T06:45:17.103Z,99068
2024-05-09T06:46:17.105Z,99070
2024-05-09T06:47:17.392Z,99072.8
2024-05-09T06:48:17.542Z,99075
2024-05-09T06:49:17.578Z,99077.4
2024-05-09T06:50:31.326Z,99078.4
2024-05-09T06:51:18.472Z,99080.2
2024-05-09T06:52:18.406Z,99080
2024-05-09T06:53:18.033Z,99080.4
2024-05-09T06:54:17.653Z,99080.4
2024-05-09T06:55:17.772Z,99081.2
2024-05-09T06:56:17.003Z,99080.6
2024-05-09T06:57:17.765Z,99082
2024-05-09T06:58:17.899Z,99082.4
2024-05-09T06:59:17.041Z,99084.4
2024-05-09T07:00:38.522Z,99084.8
2024-05-09T07:01:17.507Z,99086.8
2024-05-09T07:02:17.753Z,99088
2024-05-09T07:03:20.267Z,99089.6
2024-05-09T07:04:17.992Z,99091
2024-05-09T07:05:17.999Z,99094.2
2024-05-09T07:06:16.907Z,99095
2024-05-09T07:07:16.860Z,99096
2024-05-09T07:08:17.506Z,99097.4
2024-05-09T07:09:17.335Z,99098.2
2024-05-09T07:10:34.464Z,99098.6
2024-05-09T07:11:16.940Z,99099.6
2024-05-09T07:12:17.162Z,99099.8
2024-05-09T07:13:18.066Z,99099.8
2024-05-09T07:14:17.134Z,99099.2
2024-05-09T07:15:17.408Z,99098.6
2024-05-09T07:16:18.605Z,99098.6
2024-05-09T07:17:17.763Z,99098.4
2024-05-09T07:18:20.236Z,99098.6
2024-05-09T07:19:18.238Z,99099
2024-05-09T07:20:34.897Z,99098.4
2024-05-09T07:21:17.305Z,99098.2
2024-05-09T07:22:17.082Z,99098.8
2024-05-09T07:23:17.293Z,99099.2
2024-05-09T07:24:18.100Z,99099.6
2024-05-09T07:25:17.358Z,99100.2
2024-05-09T07:26:17.790Z,99101.2
2024-05-09T07:27:17.428Z,99100.4
2024-05-09T07:28:18.489Z,99099.8
2024-05-09T07:29:18.542Z,99098.8
2024-05-09T07:30:34.283Z,99098.4
2024-05-09T07:31:18.621Z,99098
2024-05-09T07:32:17.223Z,99099.8
2024-05-09T07:33:17.726Z,99100
2024-05-09T07:34:18.377Z,99101
2024-05-09T07:35:18.685Z,99101.6
2024-05-09T07:36:18.600Z,99102.2
2024-05-09T07:37:16.570Z,99100.6
2024-05-09T07:38:17.906Z,99100
2024-05-09T07:39:16.799Z,99099
2024-05-09T07:40:36.550Z,99099
2024-05-09T07:41:17.270Z,99098.6
2024-05-09T07:42:16.935Z,99098.2
2024-05-09T07:43:17.192Z,99098.8
2024-05-09T07:44:17.388Z,99098.8
2024-05-09T07:45:40.400Z,99099.4
2024-05-09T07:50:01.022Z,99098
2024-05-09T07:51:48.286Z,99096.8
2024-05-09T07:53:44.723Z,99097.8
2024-05-09T07:53:47.246Z,99097.8
2024-05-09T07:54:17.793Z,99101.6
2024-05-09T07:55:18.008Z,99102.8
2024-05-09T07:56:21.834Z,99104.4
2024-05-09T07:57:17.996Z,99104.8
2024-05-09T07:58:18.622Z,99105.2
2024-05-09T07:59:17.679Z,99104.4
2024-05-09T08:00:31.826Z,99104.6
2024-05-09T08:01:16.924Z,99105.4
2024-05-09T08:02:17.840Z,99106.2
2024-05-09T08:03:17.924Z,99108.2
2024-05-09T08:04:18.352Z,99109.2
2024-05-09T08:05:17.840Z,99109.6
2024-05-09T08:06:17.690Z,99110.2
2024-05-09T08:07:17.811Z,99110.4
2024-05-09T08:08:20.756Z,99109.8
2024-05-09T08:09:21.855Z,99110.2
2024-05-09T08:10:24.443Z,99111.2
2024-05-09T08:11:17.822Z,99112
2024-05-09T08:12:18.743Z,99112.6
2024-05-09T08:13:16.988Z,99113.4
2024-05-09T08:14:16.922Z,99113.4
2024-05-09T08:15:17.235Z,99113
2024-05-09T08:16:17.420Z,99113
2024-05-09T08:17:17.495Z,99114
2024-05-09T08:18:17.940Z,99114.4
2024-05-09T08:19:17.750Z,99115.2
2024-05-09T08:20:35.156Z,99116.4
2024-05-09T08:21:16.910Z,99116.4
2024-05-09T08:22:18.022Z,99116
2024-05-09T08:23:18.152Z,99115.4
2024-05-09T08:24:16.969Z,99115
2024-05-09T08:25:18.670Z,99113.6
2024-05-09T08:26:17.493Z,99113.8
2024-05-09T08:27:17.708Z,99113.4
2024-05-09T08:28:18.154Z,99113.6
2024-05-09T08:29:16.563Z,99114
2024-05-09T08:30:36.297Z,99115
2024-05-09T08:31:17.653Z,99115.2
2024-05-09T08:32:17.820Z,99116
2024-05-09T08:33:18.374Z,99116.6
2024-05-09T08:34:17.547Z,99117
2024-05-09T08:35:17.297Z,99117.4
2024-05-09T08:36:18.456Z,99118
2024-05-09T08:37:29.427Z,99118.2
2024-05-09T08:38:17.813Z,99118.4
2024-05-09T08:39:17.951Z,99119.2
2024-05-09T08:40:35.255Z,99119.4
2024-05-09T08:41:17.988Z,99119
2024-05-09T08:42:16.962Z,99119
2024-05-09T08:43:17.444Z,99118.8
2024-05-09T08:44:19.248Z,99117.6
2024-05-09T08:45:17.519Z,99117.6
2024-05-09T08:46:16.870Z,99118.2
2024-05-09T08:47:16.760Z,99118.6
2024-05-09T08:48:18.303Z,99118.6
2024-05-09T08:49:18.108Z,99118
2024-05-09T08:50:39.208Z,99117.8
2024-05-09T08:51:17.179Z,99117
2024-05-09T08:52:20.198Z,99116.6
2024-05-09T08:53:17.218Z,99117
2024-05-09T08:54:17.341Z,99117.6
2024-05-09T08:55:17.501Z,99118
2024-05-09T08:56:20.496Z,99119.2
2024-05-09T08:57:19.562Z,99120.2
2024-05-09T08:58:18.152Z,99120.6
2024-05-09T08:59:21.706Z,99120.8
2024-05-09T09:00:37.280Z,99121.2
2024-05-09T09:01:18.246Z,99120.2
2024-05-09T09:02:18.066Z,99118.8
2024-05-09T09:03:18.107Z,99118.2
2024-05-09T09:04:19.227Z,99119
2024-05-09T09:05:17.852Z,99118.6
2024-05-09T09:06:17.119Z,99118.6
2024-05-09T09:07:19.207Z,99118.8
2024-05-09T09:08:23.081Z,99117.2
2024-05-09T09:09:17.078Z,99115.6
2024-05-09T09:10:33.195Z,99115.2
2024-05-09T09:11:19.493Z,99114.8
2024-05-09T09:12:19.372Z,99114.2
2024-05-09T09:13:19.604Z,99115
2024-05-09T09:14:19.433Z,99114.6
2024-05-09T09:15:18.539Z,99113.8
2024-05-09T09:16:19.370Z,99112.8
2024-05-09T09:17:18.965Z,99111.6
2024-05-09T09:18:19.874Z,99110.4
2024-05-09T09:19:19.341Z,99109.6
2024-05-09T09:20:36.626Z,99109
2024-05-09T09:21:19.527Z,99108.4
2024-05-09T09:22:18.581Z,99108.4
2024-05-09T09:23:18.513Z,99108
2024-05-09T09:24:19.611Z,99107.6
2024-05-09T09:25:19.851Z,99107.6
2024-05-09T09:26:18.838Z,99108.2
2024-05-09T09:27:17.823Z,99108.2
2024-05-09T09:28:19.013Z,99108
2024-05-09T09:29:17.904Z,99108
2024-05-09T09:30:38.156Z,99107.6
2024-05-09T09:31:18.548Z,99106.6
2024-05-09T09:32:19.638Z,99105.4
2024-05-09T09:33:20.205Z,99103.8
2024-05-09T09:34:19.095Z,99102.4
2024-05-09T09:35:17.794Z,99101.4
2024-05-09T09:36:17.714Z,99102.4
2024-05-09T09:37:17.990Z,99102.8
2024-05-09T09:38:18.963Z,99105.6
2024-05-09T09:39:19.030Z,99107.2
2024-05-09T09:40:31.925Z,99107.6
2024-05-09T09:41:46.661Z,99107.2
2024-05-09T09:42:18.774Z,99108
2024-05-09T09:43:45.644Z,99106.6
2024-05-09T09:44:18.768Z,99106.8
2024-05-09T09:45:17.958Z,99106.4
2024-05-09T09:46:19.019Z,99104
2024-05-09T09:47:19.206Z,99102.6
2024-05-09T09:48:18.145Z,99101
2024-05-09T09:49:19.199Z,99099.4
2024-05-09T09:50:34.780Z,99098.6
2024-05-09T09:51:19.495Z,99099.2
2024-05-09T09:52:19.845Z,99100
2024-05-09T09:53:18.484Z,99100.6
2024-05-09T09:54:19.352Z,99100.4
2024-05-09T09:55:19.794Z,99101.2
2024-05-09T09:56:18.870Z,99101
2024-05-09T09:57:18.871Z,99100.8
2024-05-09T09:58:18.346Z,99101.2
2024-05-09T09:59:18.836Z,99102
2024-05-09T10:00:33.299Z,99101.8
2024-05-09T10:01:18.155Z,99102.4
2024-05-09T10:02:19.595Z,99101.8
2024-05-09T10:03:19.649Z,99100.4
2024-05-09T10:04:19.716Z,99099.4
2024-05-09T10:05:21.022Z,99097.6
2024-05-09T10:06:19.614Z,99098.4
2024-05-09T10:07:18.508Z,99099.2
2024-05-09T10:08:19.751Z,99100.6
2024-05-09T10:09:18.882Z,99101.2
2024-05-09T10:10:33.201Z,99102.8
2024-05-09T10:11:18.360Z,99101
2024-05-09T10:12:19.474Z,99098.8
2024-05-09T10:13:19.590Z,99097
2024-05-09T10:14:19.787Z,99094.8
2024-05-09T10:15:18.890Z,99093
2024-05-09T10:16:19.774Z,99090.6
2024-05-09T10:17:19.716Z,99089.8
2024-05-09T10:18:23.096Z,99088
2024-05-09T10:19:19.148Z,99088.4
2024-05-09T10:20:32.374Z,99087.4
2024-05-09T10:21:22.232Z,99089.4
2024-05-09T10:22:19.249Z,99088.4
2024-05-09T10:23:19.189Z,99088.6
2024-05-09T10:24:20.305Z,99088.4
2024-05-09T10:25:23.235Z,99089
2024-05-09T10:26:19.804Z,99087.2
2024-05-09T10:27:22.941Z,99087.2
2024-05-09T10:28:25.389Z,99088.6
2024-05-09T10:29:21.352Z,99087.6
2024-05-09T10:30:29.426Z,99086.8
2024-05-09T10:31:19.857Z,99086.8
2024-05-09T10:32:23.105Z,99087
2024-05-09T10:33:21.224Z,99085.6
2024-05-09T10:34:19.310Z,99085.2
2024-05-09T10:35:19.054Z,99084.4
2024-05-09T10:36:18.234Z,99083.6
2024-05-09T10:37:22.420Z,99081.6
2024-05-09T10:38:19.137Z,99079.8
2024-05-09T10:39:23.407Z,99077.4
2024-05-09T10:40:32.245Z,99075.8
2024-05-09T10:41:19.591Z,99073.6
2024-05-09T10:42:22.812Z,99072.6
2024-05-09T10:43:18.141Z,99071.4
2024-05-09T10:44:23.419Z,99071.2
2024-05-09T10:45:19.689Z,99070.8
2024-05-09T10:46:20.760Z,99070.6
2024-05-09T10:47:18.696Z,99070.2
2024-05-09T10:48:17.899Z,99069.2
2024-05-09T10:49:19.213Z,99068.8
2024-05-09T10:50:34.040Z,99068.2
2024-05-09T10:51:19.571Z,99067
2024-05-09T10:52:20.205Z,99066.4
2024-05-09T10:53:20.878Z,99067.2
2024-05-09T10:54:17.969Z,99067.2
2024-05-09T10:55:18.557Z,99066.8
2024-05-09T10:56:19.611Z,99068
2024-05-09T10:57:19.066Z,99068.2
2024-05-09T10:58:18.327Z,99068
2024-05-09T10:59:19.231Z,99067.2
2024-05-09T11:00:36.214Z,99067.6
2024-05-09T11:01:20.242Z,99067.2
2024-05-09T11:02:19.255Z,99067.2
2024-05-09T11:03:19.159Z,99067.2
2024-05-09T11:04:20.236Z,99067.8
2024-05-09T11:05:20.043Z,99067.2
2024-05-09T11:06:19.464Z,99066.6
2024-05-09T11:07:20.014Z,99064.8
2024-05-09T11:08:18.626Z,99064
2024-05-09T11:09:17.832Z,99062.2
2024-05-09T11:10:27.665Z,99061.4
2024-05-09T11:11:18.463Z,99059.8
2024-05-09T11:12:23.612Z,99060
2024-05-09T11:13:18.782Z,99059.8
2024-05-09T11:14:17.777Z,99060
2024-05-09T11:15:19.274Z,99059.4
2024-05-09T11:16:19.731Z,99059.4
2024-05-09T11:17:18.033Z,99059.4
2024-05-09T11:18:24.210Z,99058.2
2024-05-09T11:19:18.865Z,99056.4
2024-05-09T11:20:32.897Z,99055.4
2024-05-09T11:21:18.303Z,99055.6
2024-05-09T11:22:19.650Z,99054.2
2024-05-09T11:23:19.394Z,99052.8
2024-05-09T11:24:18.536Z,99053
2024-05-09T11:25:18.097Z,99052.6
2024-05-09T11:26:19.234Z,99050.8
2024-05-09T11:27:19.487Z,99049.6
2024-05-09T11:28:18.039Z,99048.6
2024-05-09T11:29:20.289Z,99047.4
2024-05-09T11:30:32.297Z,99044.6
2024-05-09T11:31:19.988Z,99044
2024-05-09T11:32:18.557Z,99044.8
2024-05-09T11:33:19.922Z,99045
2024-05-09T11:34:19.684Z,99045.8
2024-05-09T11:35:19.806Z,99048.2
2024-05-09T11:36:19.320Z,99049
2024-05-09T11:37:18.513Z,99047.6
2024-05-09T11:38:19.380Z,99047.2
2024-05-09T11:39:19.604Z,99044.2
2024-05-09T11:40:34.182Z,99040.8
2024-05-09T11:41:19.546Z,99039.6
2024-05-09T11:42:18.122Z,99037.8
2024-05-09T11:43:19.718Z,99037.2
2024-05-09T11:44:18.639Z,99037
2024-05-09T11:45:19.060Z,99038.2
2024-05-09T11:46:19.509Z,99037.8
2024-05-09T11:47:19.410Z,99040.6
2024-05-09T11:48:21.693Z,99041.6
2024-05-09T11:49:18.912Z,99041.8
2024-05-09T11:50:35.275Z,99041.2
2024-05-09T11:51:19.173Z,99040.6
2024-05-09T11:52:19.378Z,99038
2024-05-09T11:53:18.567Z,99036
2024-05-09T11:54:18.848Z,99036.6
2024-05-09T11:55:28.960Z,99036.4
2024-05-09T11:56:18.184Z,99035.4
2024-05-09T11:57:19.863Z,99034.6
2024-05-09T11:58:19.758Z,99034.2
2024-05-09T11:59:19.412Z,99032.4
2024-05-09T12:00:37.430Z,99031.4
2024-05-09T12:01:19.458Z,99030.6
2024-05-09T12:02:19.826Z,99029.8
2024-05-09T12:03:19.920Z,99028
2024-05-09T12:04:18.806Z,99027
2024-05-09T12:05:19.284Z,99025.4
2024-05-09T12:06:18.065Z,99025.2
2024-05-09T12:07:19.377Z,99025.2
2024-05-09T12:08:19.528Z,99026.2
2024-05-09T12:09:18.747Z,99026.4
2024-05-09T12:10:32.818Z,99026.8
2024-05-09T12:11:18.968Z,99025.2
2024-05-09T12:12:18.963Z,99024.6
2024-05-09T12:13:19.597Z,99022.8
2024-05-09T12:14:19.650Z,99021.6
2024-05-09T12:15:18.365Z,99020.4
2024-05-09T12:16:18.831Z,99019.2
2024-05-09T12:17:20.038Z,99017
2024-05-09T12:18:18.994Z,99015.4
2024-05-09T12:19:19.351Z,99013.6